sensor_id;sensor_type;location;lat;lon;timestamp;pressure;altitude;pressure_sealevel;temperature;humidity
7168;BME280;3625;51.762;14.320;2023-01-27T00:01:01;101236.47;;;0.56;100.00
7168;BME280;3625;51.762;14.320;2023-01-27T00:03:35;101236.38;;;0.53;100.00
7168;BME280;3625;51.762;14.320;2023-01-27T00:06:04;101227.69;;;0.53;100.00
7168;BME280;3625;51.762;14.320;2023-01-27T00:08:38;101137.59;;;-0.01;100.00
7168;BME280;3625;51.762;14.320;2023-01-27T00:11:07;101237.19;;;0.51;100.00
7168;BME280;3625;51.762;14.320;2023-01-27T00:13:55;101232.75;;;0.48;100.00
7168;BME280;3625;51.762;14.320;2023-01-27T00:16:24;101200.97;;;0.30;100.00
7168;BME280;3625;51.762;14.320;2023-01-27T00:18:54;101230.28;;;0.51;100.00
7168;BME280;3625;51.762;14.320;2023-01-27T00:21:25;101097.78;;;-0.26;100.00
7168;BME280;3625;51.762;14.320;2023-01-27T00:24:12;101195.66;;;0.27;100.00
7168;BME280;3625;51.762;14.320;2023-01-27T00:26:58;101223.94;;;0.43;100.00
7168;BME280;3625;51.762;14.320;2023-01-27T00:29:29;101225.84;;;0.49;100.00
7168;BME280;3625;51.762;14.320;2023-01-27T00:31:59;101226.50;;;0.42;100.00
7168;BME280;3625;51.762;14.320;2023-01-27T00:34:45;101225.78;;;0.47;100.00
7168;BME280;3625;51.762;14.320;2023-01-27T00:37:15;101204.03;;;0.17;100.00
7168;BME280;3625;51.762;14.320;2023-01-27T00:39:46;101224.19;;;0.24;100.00
7168;BME280;3625;51.762;14.320;2023-01-27T00:42:17;100935.19;;;-1.53;100.00
7168;BME280;3625;51.762;14.320;2023-01-27T00:44:54;101225.81;;;0.20;100.00
7168;BME280;3625;51.762;14.320;2023-01-27T00:47:40;101227.47;;;0.18;100.00
7168;BME280;3625;51.762;14.320;2023-01-27T00:50:10;101225.09;;;0.24;100.00
7168;BME280;3625;51.762;14.320;2023-01-27T00:52:40;100989.47;;;-1.08;100.00
7168;BME280;3625;51.762;14.320;2023-01-27T00:55:09;101224.16;;;0.22;100.00
7168;BME280;3625;51.762;14.320;2023-01-27T00:57:38;101225.41;;;0.35;100.00
7168;BME280;3625;51.762;14.320;2023-01-27T01:00:11;101193.69;;;0.20;100.00
7168;BME280;3625;51.762;14.320;2023-01-27T01:02:41;101227.22;;;0.37;100.00
7168;BME280;3625;51.762;14.320;2023-01-27T01:05:10;101233.25;;;0.36;100.00
7168;BME280;3625;51.762;14.320;2023-01-27T01:07:39;101234.91;;;0.33;100.00
7168;BME280;3625;51.762;14.320;2023-01-27T01:10:09;101235.09;;;0.39;100.00
7168;BME280;3625;51.762;14.320;2023-01-27T01:12:46;101233.97;;;0.31;100.00
7168;BME280;3625;51.762;14.320;2023-01-27T01:15:18;101238.97;;;0.25;100.00
7168;BME280;3625;51.762;14.320;2023-01-27T01:17:47;101228.34;;;0.17;100.00
7168;BME280;3625;51.762;14.320;2023-01-27T01:20:17;101230.88;;;0.16;100.00
7168;BME280;3625;51.762;14.320;2023-01-27T01:22:46;101234.25;;;0.13;100.00
7168;BME280;3625;51.762;14.320;2023-01-27T01:25:15;101233.38;;;0.13;100.00
7168;BME280;3625;51.762;14.320;2023-01-27T01:27:44;101233.78;;;0.25;100.00
7168;BME280;3625;51.762;14.320;2023-01-27T01:30:16;101233.91;;;0.29;100.00
7168;BME280;3625;51.762;14.320;2023-01-27T01:32:46;101243.28;;;0.24;100.00
7168;BME280;3625;51.762;14.320;2023-01-27T01:35:19;101240.69;;;0.24;100.00
7168;BME280;3625;51.762;14.320;2023-01-27T01:37:51;101246.63;;;0.20;100.00
7168;BME280;3625;51.762;14.320;2023-01-27T01:40:30;101102.03;;;-0.55;100.00
7168;BME280;3625;51.762;14.320;2023-01-27T01:43:13;101244.97;;;0.22;100.00
7168;BME280;3625;51.762;14.320;2023-01-27T01:45:51;101241.53;;;0.23;100.00
7168;BME280;3625;51.762;14.320;2023-01-27T01:48:32;101171.94;;;-0.11;100.00
7168;BME280;3625;51.762;14.320;2023-01-27T01:51:10;100957.38;;;-1.35;100.00
7168;BME280;3625;51.762;14.320;2023-01-27T01:53:55;101239.06;;;0.28;100.00
7168;BME280;3625;51.762;14.320;2023-01-27T01:56:33;101220.41;;;0.14;100.00
7168;BME280;3625;51.762;14.320;2023-01-27T01:59:19;101244.25;;;0.28;100.00
7168;BME280;3625;51.762;14.320;2023-01-27T02:02:00;101241.59;;;0.25;100.00
7168;BME280;3625;51.762;14.320;2023-01-27T02:04:40;101080.38;;;-0.81;100.00
7168;BME280;3625;51.762;14.320;2023-01-27T02:07:19;101255.75;;;0.08;100.00
7168;BME280;3625;51.762;14.320;2023-01-27T02:09:52;101249.56;;;0.04;100.00
7168;BME280;3625;51.762;14.320;2023-01-27T02:12:29;101244.91;;;0.21;100.00
7168;BME280;3625;51.762;14.320;2023-01-27T02:14:58;101239.56;;;0.16;100.00
7168;BME280;3625;51.762;14.320;2023-01-27T02:17:31;101252.41;;;0.12;100.00
7168;BME280;3625;51.762;14.320;2023-01-27T02:20:07;101228.31;;;-0.10;100.00
7168;BME280;3625;51.762;14.320;2023-01-27T02:22:47;101244.53;;;0.09;100.00
7168;BME280;3625;51.762;14.320;2023-01-27T02:25:37;101163.34;;;-0.35;100.00
7168;BME280;3625;51.762;14.320;2023-01-27T02:28:10;101238.75;;;0.19;100.00
7168;BME280;3625;51.762;14.320;2023-01-27T02:30:41;101239.69;;;0.21;100.00
7168;BME280;3625;51.762;14.320;2023-01-27T02:33:11;101234.31;;;0.15;100.00
7168;BME280;3625;51.762;14.320;2023-01-27T02:35:53;101240.47;;;0.17;100.00
7168;BME280;3625;51.762;14.320;2023-01-27T02:38:34;101245.06;;;0.25;100.00
7168;BME280;3625;51.762;14.320;2023-01-27T02:41:10;101250.28;;;0.27;100.00
7168;BME280;3625;51.762;14.320;2023-01-27T02:43:40;101248.41;;;0.21;100.00
7168;BME280;3625;51.762;14.320;2023-01-27T02:46:11;101256.38;;;0.26;100.00
7168;BME280;3625;51.762;14.320;2023-01-27T02:48:40;101255.72;;;0.33;100.00
7168;BME280;3625;51.762;14.320;2023-01-27T02:51:09;101250.69;;;0.39;100.00
7168;BME280;3625;51.762;14.320;2023-01-27T02:53:42;101253.41;;;0.42;100.00
7168;BME280;3625;51.762;14.320;2023-01-27T02:56:12;101256.84;;;0.41;100.00
7168;BME280;3625;51.762;14.320;2023-01-27T02:58:43;101246.31;;;0.38;100.00
7168;BME280;3625;51.762;14.320;2023-01-27T03:01:18;101254.28;;;0.43;100.00
7168;BME280;3625;51.762;14.320;2023-01-27T03:03:52;101258.63;;;0.42;100.00
7168;BME280;3625;51.762;14.320;2023-01-27T03:06:21;101254.53;;;0.50;100.00
7168;BME280;3625;51.762;14.320;2023-01-27T03:08:55;101264.72;;;0.43;100.00
7168;BME280;3625;51.762;14.320;2023-01-27T03:11:25;101265.31;;;0.35;100.00
7168;BME280;3625;51.762;14.320;2023-01-27T03:14:08;101267.03;;;0.35;100.00
7168;BME280;3625;51.762;14.320;2023-01-27T03:16:41;101266.25;;;0.37;100.00
7168;BME280;3625;51.762;14.320;2023-01-27T03:19:28;101269.69;;;0.36;100.00
7168;BME280;3625;51.762;14.320;2023-01-27T03:21:57;101103.69;;;-0.57;100.00
7168;BME280;3625;51.762;14.320;2023-01-27T03:24:32;101281.38;;;0.49;100.00
7168;BME280;3625;51.762;14.320;2023-01-27T03:27:07;101283.88;;;0.46;100.00
7168;BME280;3625;51.762;14.320;2023-01-27T03:29:56;101281.00;;;0.37;100.00
7168;BME280;3625;51.762;14.320;2023-01-27T03:32:28;101257.22;;;0.26;100.00
7168;BME280;3625;51.762;14.320;2023-01-27T03:35:17;101280.25;;;0.41;100.00
7168;BME280;3625;51.762;14.320;2023-01-27T03:37:49;101289.72;;;0.39;100.00
7168;BME280;3625;51.762;14.320;2023-01-27T03:40:35;101244.53;;;0.09;100.00
7168;BME280;3625;51.762;14.320;2023-01-27T03:43:23;101159.63;;;-0.42;100.00
7168;BME280;3625;51.762;14.320;2023-01-27T03:46:09;101287.31;;;0.18;100.00
7168;BME280;3625;51.762;14.320;2023-01-27T03:48:51;101281.44;;;0.24;100.00
7168;BME280;3625;51.762;14.320;2023-01-27T03:51:22;101278.31;;;0.34;100.00
7168;BME280;3625;51.762;14.320;2023-01-27T03:53:52;101283.69;;;0.40;100.00
7168;BME280;3625;51.762;14.320;2023-01-27T03:56:21;101283.09;;;0.49;100.00
7168;BME280;3625;51.762;14.320;2023-01-27T03:58:52;101258.22;;;0.30;100.00
7168;BME280;3625;51.762;14.320;2023-01-27T04:01:25;101278.78;;;0.49;100.00
7168;BME280;3625;51.762;14.320;2023-01-27T04:03:54;101278.59;;;0.43;100.00
7168;BME280;3625;51.762;14.320;2023-01-27T04:06:42;101262.69;;;0.34;100.00
7168;BME280;3625;51.762;14.320;2023-01-27T04:09:24;101277.78;;;0.46;100.00
7168;BME280;3625;51.762;14.320;2023-01-27T04:11:54;101230.13;;;0.20;100.00
7168;BME280;3625;51.762;14.320;2023-01-27T04:14:27;101273.72;;;0.54;100.00
7168;BME280;3625;51.762;14.320;2023-01-27T04:17:01;101224.91;;;0.20;100.00
7168;BME280;3625;51.762;14.320;2023-01-27T04:19:30;101280.50;;;0.49;100.00
7168;BME280;3625;51.762;14.320;2023-01-27T04:22:01;101277.72;;;0.43;100.00
7168;BME280;3625;51.762;14.320;2023-01-27T04:24:30;100997.13;;;-1.11;100.00
7168;BME280;3625;51.762;14.320;2023-01-27T04:27:03;101272.59;;;0.46;100.00
7168;BME280;3625;51.762;14.320;2023-01-27T04:29:37;101278.78;;;0.49;100.00
7168;BME280;3625;51.762;14.320;2023-01-27T04:32:09;101274.25;;;0.44;100.00
7168;BME280;3625;51.762;14.320;2023-01-27T04:34:39;101277.56;;;0.38;100.00
7168;BME280;3625;51.762;14.320;2023-01-27T04:37:09;101284.41;;;0.36;100.00
7168;BME280;3625;51.762;14.320;2023-01-27T04:39:39;101283.59;;;0.37;100.00
7168;BME280;3625;51.762;14.320;2023-01-27T04:42:09;101282.94;;;0.44;100.00
7168;BME280;3625;51.762;14.320;2023-01-27T04:44:43;101053.28;;;-0.89;100.00
7168;BME280;3625;51.762;14.320;2023-01-27T04:47:13;101291.44;;;0.38;100.00
7168;BME280;3625;51.762;14.320;2023-01-27T04:49:41;101289.84;;;0.42;100.00
7168;BME280;3625;51.762;14.320;2023-01-27T04:52:10;101267.25;;;0.41;100.00
7168;BME280;3625;51.762;14.320;2023-01-27T04:54:39;101298.91;;;0.55;100.00
7168;BME280;3625;51.762;14.320;2023-01-27T04:57:08;101164.50;;;-0.25;100.00
7168;BME280;3625;51.762;14.320;2023-01-27T04:59:37;101298.84;;;0.53;100.00
7168;BME280;3625;51.762;14.320;2023-01-27T05:02:07;101288.91;;;0.40;100.00
7168;BME280;3625;51.762;14.320;2023-01-27T05:04:37;101300.16;;;0.39;100.00
7168;BME280;3625;51.762;14.320;2023-01-27T05:07:06;101298.19;;;0.32;100.00
7168;BME280;3625;51.762;14.320;2023-01-27T05:09:35;101299.84;;;0.30;100.00
7168;BME280;3625;51.762;14.320;2023-01-27T05:12:04;101303.44;;;0.33;100.00
7168;BME280;3625;51.762;14.320;2023-01-27T05:14:34;101297.25;;;0.30;100.00
7168;BME280;3625;51.762;14.320;2023-01-27T05:17:13;101298.31;;;0.36;100.00
7168;BME280;3625;51.762;14.320;2023-01-27T05:19:45;101306.25;;;0.40;100.00
7168;BME280;3625;51.762;14.320;2023-01-27T05:22:18;101304.34;;;0.35;100.00
7168;BME280;3625;51.762;14.320;2023-01-27T05:24:47;101318.31;;;0.37;100.00
7168;BME280;3625;51.762;14.320;2023-01-27T05:27:16;101313.28;;;0.44;100.00
7168;BME280;3625;51.762;14.320;2023-01-27T05:29:45;101214.44;;;-0.10;100.00
7168;BME280;3625;51.762;14.320;2023-01-27T05:32:16;101311.75;;;0.49;100.00
7168;BME280;3625;51.762;14.320;2023-01-27T05:34:46;101313.47;;;0.48;100.00
7168;BME280;3625;51.762;14.320;2023-01-27T05:37:15;101318.06;;;0.57;100.00
7168;BME280;3625;51.762;14.320;2023-01-27T05:39:44;101229.50;;;0.00;100.00
7168;BME280;3625;51.762;14.320;2023-01-27T05:42:13;101318.00;;;0.55;100.00
7168;BME280;3625;51.762;14.320;2023-01-27T05:44:42;101325.06;;;0.58;100.00
7168;BME280;3625;51.762;14.320;2023-01-27T05:47:13;101135.13;;;-0.75;100.00
7168;BME280;3625;51.762;14.320;2023-01-27T05:49:43;101333.44;;;0.49;100.00
7168;BME280;3625;51.762;14.320;2023-01-27T05:52:13;101285.81;;;0.25;100.00
7168;BME280;3625;51.762;14.320;2023-01-27T05:54:42;101315.00;;;0.42;100.00
7168;BME280;3625;51.762;14.320;2023-01-27T05:57:11;101316.59;;;0.38;100.00
7168;BME280;3625;51.762;14.320;2023-01-27T05:59:40;101317.06;;;0.53;100.00
7168;BME280;3625;51.762;14.320;2023-01-27T06:02:09;101238.28;;;0.04;100.00
7168;BME280;3625;51.762;14.320;2023-01-27T06:04:43;101271.97;;;0.26;100.00
7168;BME280;3625;51.762;14.320;2023-01-27T06:07:12;101316.25;;;0.54;100.00
7168;BME280;3625;51.762;14.320;2023-01-27T06:09:41;101236.00;;;-0.13;100.00
7168;BME280;3625;51.762;14.320;2023-01-27T06:12:10;101332.53;;;0.22;100.00
7168;BME280;3625;51.762;14.320;2023-01-27T06:14:39;101336.16;;;0.27;100.00
7168;BME280;3625;51.762;14.320;2023-01-27T06:17:08;101338.09;;;0.32;100.00
7168;BME280;3625;51.762;14.320;2023-01-27T06:19:37;101331.03;;;0.28;100.00
7168;BME280;3625;51.762;14.320;2023-01-27T06:22:07;101338.63;;;0.22;100.00
7168;BME280;3625;51.762;14.320;2023-01-27T06:24:36;101307.69;;;0.05;100.00
7168;BME280;3625;51.762;14.320;2023-01-27T06:27:05;101344.66;;;0.21;100.00
7168;BME280;3625;51.762;14.320;2023-01-27T06:29:34;101347.19;;;0.20;100.00
7168;BME280;3625;51.762;14.320;2023-01-27T06:32:04;101290.09;;;-0.03;100.00
7168;BME280;3625;51.762;14.320;2023-01-27T06:34:33;101349.47;;;0.34;100.00
7168;BME280;3625;51.762;14.320;2023-01-27T06:37:01;101278.88;;;-0.02;100.00
7168;BME280;3625;51.762;14.320;2023-01-27T06:39:31;101348.00;;;0.43;100.00
7168;BME280;3625;51.762;14.320;2023-01-27T06:42:00;101350.81;;;0.23;100.00
7168;BME280;3625;51.762;14.320;2023-01-27T06:44:28;101355.84;;;0.19;100.00
7168;BME280;3625;51.762;14.320;2023-01-27T06:46:57;101354.75;;;0.12;100.00
7168;BME280;3625;51.762;14.320;2023-01-27T06:49:25;101350.59;;;0.17;100.00
7168;BME280;3625;51.762;14.320;2023-01-27T06:51:54;101254.84;;;-0.45;100.00
7168;BME280;3625;51.762;14.320;2023-01-27T06:54:22;101342.53;;;0.10;100.00
7168;BME280;3625;51.762;14.320;2023-01-27T06:56:52;101354.31;;;0.24;100.00
7168;BME280;3625;51.762;14.320;2023-01-27T06:59:21;101306.84;;;0.06;100.00
7168;BME280;3625;51.762;14.320;2023-01-27T07:01:49;101360.16;;;0.44;100.00
7168;BME280;3625;51.762;14.320;2023-01-27T07:04:19;101361.09;;;0.46;100.00
7168;BME280;3625;51.762;14.320;2023-01-27T07:06:48;101365.34;;;0.44;100.00
7168;BME280;3625;51.762;14.320;2023-01-27T07:09:16;101364.56;;;0.46;100.00
7168;BME280;3625;51.762;14.320;2023-01-27T07:11:45;101363.50;;;0.40;100.00
7168;BME280;3625;51.762;14.320;2023-01-27T07:14:14;101368.91;;;0.46;100.00
7168;BME280;3625;51.762;14.320;2023-01-27T07:16:44;101371.34;;;0.41;100.00
7168;BME280;3625;51.762;14.320;2023-01-27T07:19:13;101336.22;;;0.28;100.00
7168;BME280;3625;51.762;14.320;2023-01-27T07:21:43;101370.91;;;0.54;100.00
7168;BME280;3625;51.762;14.320;2023-01-27T07:24:12;101331.38;;;0.39;100.00
7168;BME280;3625;51.762;14.320;2023-01-27T07:26:40;101326.47;;;0.48;100.00
7168;BME280;3625;51.762;14.320;2023-01-27T07:29:11;101360.31;;;0.48;100.00
7168;BME280;3625;51.762;14.320;2023-01-27T07:31:43;101371.50;;;0.72;100.00
7168;BME280;3625;51.762;14.320;2023-01-27T07:34:12;101378.38;;;0.70;100.00
7168;BME280;3625;51.762;14.320;2023-01-27T07:36:40;101376.06;;;0.80;100.00
7168;BME280;3625;51.762;14.320;2023-01-27T07:39:09;101378.09;;;0.88;100.00
7168;BME280;3625;51.762;14.320;2023-01-27T07:41:38;101357.72;;;0.75;100.00
7168;BME280;3625;51.762;14.320;2023-01-27T07:44:07;101310.56;;;0.39;100.00
7168;BME280;3625;51.762;14.320;2023-01-27T07:46:35;101384.59;;;0.74;100.00
7168;BME280;3625;51.762;14.320;2023-01-27T07:49:05;101354.03;;;0.68;100.00
7168;BME280;3625;51.762;14.320;2023-01-27T07:51:34;101390.63;;;0.73;100.00
7168;BME280;3625;51.762;14.320;2023-01-27T07:54:03;101393.34;;;0.76;100.00
7168;BME280;3625;51.762;14.320;2023-01-27T07:56:32;101395.41;;;0.61;100.00
7168;BME280;3625;51.762;14.320;2023-01-27T07:59:04;101347.47;;;0.27;100.00
7168;BME280;3625;51.762;14.320;2023-01-27T08:01:35;101390.19;;;0.59;100.00
7168;BME280;3625;51.762;14.320;2023-01-27T08:04:06;101402.75;;;0.72;100.00
7168;BME280;3625;51.762;14.320;2023-01-27T08:06:37;101299.91;;;0.31;100.00
7168;BME280;3625;51.762;14.320;2023-01-27T08:09:06;101352.63;;;0.53;100.00
7168;BME280;3625;51.762;14.320;2023-01-27T08:11:35;101400.28;;;0.75;100.00
7168;BME280;3625;51.762;14.320;2023-01-27T08:14:03;101355.34;;;0.56;100.00
7168;BME280;3625;51.762;14.320;2023-01-27T08:16:32;101408.88;;;1.00;100.00
7168;BME280;3625;51.762;14.320;2023-01-27T08:19:00;101408.97;;;1.03;100.00
7168;BME280;3625;51.762;14.320;2023-01-27T08:21:30;101409.94;;;1.06;100.00
7168;BME280;3625;51.762;14.320;2023-01-27T08:23:59;101318.19;;;0.61;100.00
7168;BME280;3625;51.762;14.320;2023-01-27T08:26:28;101413.81;;;1.19;100.00
7168;BME280;3625;51.762;14.320;2023-01-27T08:28:56;101377.41;;;0.94;100.00
7168;BME280;3625;51.762;14.320;2023-01-27T08:31:24;101345.38;;;0.69;100.00
7168;BME280;3625;51.762;14.320;2023-01-27T08:33:54;101417.69;;;1.05;100.00
7168;BME280;3625;51.762;14.320;2023-01-27T08:36:23;101421.75;;;1.24;100.00
7168;BME280;3625;51.762;14.320;2023-01-27T08:38:54;101384.50;;;1.26;100.00
7168;BME280;3625;51.762;14.320;2023-01-27T08:41:25;101413.78;;;1.46;100.00
7168;BME280;3625;51.762;14.320;2023-01-27T08:43:54;101418.28;;;1.51;100.00
7168;BME280;3625;51.762;14.320;2023-01-27T08:46:22;101423.00;;;1.65;100.00
7168;BME280;3625;51.762;14.320;2023-01-27T08:48:51;101396.81;;;1.60;100.00
7168;BME280;3625;51.762;14.320;2023-01-27T08:51:19;101418.09;;;1.75;100.00
7168;BME280;3625;51.762;14.320;2023-01-27T08:53:48;101419.25;;;1.85;100.00
7168;BME280;3625;51.762;14.320;2023-01-27T08:56:18;101424.88;;;1.69;100.00
7168;BME280;3625;51.762;14.320;2023-01-27T08:58:46;101401.91;;;1.56;100.00
7168;BME280;3625;51.762;14.320;2023-01-27T09:01:15;101432.53;;;1.63;100.00
7168;BME280;3625;51.762;14.320;2023-01-27T09:03:44;101402.03;;;1.32;100.00
7168;BME280;3625;51.762;14.320;2023-01-27T09:06:14;101435.56;;;1.21;100.00
7168;BME280;3625;51.762;14.320;2023-01-27T09:08:43;101363.28;;;0.87;100.00
7168;BME280;3625;51.762;14.320;2023-01-27T09:11:34;101388.03;;;1.00;100.00
7168;BME280;3625;51.762;14.320;2023-01-27T09:14:03;101412.63;;;1.36;100.00
7168;BME280;3625;51.762;14.320;2023-01-27T09:16:32;101409.25;;;1.40;100.00
7168;BME280;3625;51.762;14.320;2023-01-27T09:19:00;101450.13;;;1.70;100.00
7168;BME280;3625;51.762;14.320;2023-01-27T09:21:30;101437.66;;;1.89;100.00
7168;BME280;3625;51.762;14.320;2023-01-27T09:23:59;101437.81;;;1.96;100.00
7168;BME280;3625;51.762;14.320;2023-01-27T09:26:27;101386.63;;;1.69;100.00
7168;BME280;3625;51.762;14.320;2023-01-27T09:28:58;101429.13;;;1.95;100.00
7168;BME280;3625;51.762;14.320;2023-01-27T09:31:27;101450.03;;;1.97;100.00
7168;BME280;3625;51.762;14.320;2023-01-27T09:33:55;101438.63;;;1.93;100.00
7168;BME280;3625;51.762;14.320;2023-01-27T09:36:24;101425.72;;;1.99;100.00
7168;BME280;3625;51.762;14.320;2023-01-27T09:38:59;101412.94;;;2.08;100.00
7168;BME280;3625;51.762;14.320;2023-01-27T09:42:11;101397.13;;;2.02;100.00
7168;BME280;3625;51.762;14.320;2023-01-27T09:48:32;101436.16;;;1.99;100.00
7168;BME280;3625;51.762;14.320;2023-01-27T09:51:15;101436.00;;;1.93;100.00
7168;BME280;3625;51.762;14.320;2023-01-27T09:54:15;101434.84;;;1.83;100.00
7168;BME280;3625;51.762;14.320;2023-01-27T09:56:59;101440.38;;;2.24;100.00
7168;BME280;3625;51.762;14.320;2023-01-27T09:59:54;101376.00;;;1.93;100.00
7168;BME280;3625;51.762;14.320;2023-01-27T10:03:01;101417.56;;;2.18;100.00
7168;BME280;3625;51.762;14.320;2023-01-27T10:05:55;101437.06;;;2.31;100.00
7168;BME280;3625;51.762;14.320;2023-01-27T10:08:50;101423.97;;;2.30;100.00
7168;BME280;3625;51.762;14.320;2023-01-27T10:11:35;101443.22;;;2.33;100.00
7168;BME280;3625;51.762;14.320;2023-01-27T10:14:21;101437.13;;;2.34;100.00
7168;BME280;3625;51.762;14.320;2023-01-27T10:17:19;101426.50;;;2.59;100.00
7168;BME280;3625;51.762;14.320;2023-01-27T10:20:16;101347.28;;;2.26;100.00
7168;BME280;3625;51.762;14.320;2023-01-27T10:23:01;101436.22;;;2.65;100.00
7168;BME280;3625;51.762;14.320;2023-01-27T10:25:47;101406.94;;;2.44;100.00
7168;BME280;3625;51.762;14.320;2023-01-27T10:28:23;101435.28;;;2.63;100.00
7168;BME280;3625;51.762;14.320;2023-01-27T10:30:59;101436.88;;;2.91;100.00
7168;BME280;3625;51.762;14.320;2023-01-27T10:33:43;101407.50;;;3.01;100.00
7168;BME280;3625;51.762;14.320;2023-01-27T10:36:25;101419.63;;;3.35;100.00
7168;BME280;3625;51.762;14.320;2023-01-27T10:39:10;101421.03;;;3.60;100.00
7168;BME280;3625;51.762;14.320;2023-01-27T10:41:54;101425.22;;;3.52;100.00
7168;BME280;3625;51.762;14.320;2023-01-27T10:44:52;101428.47;;;2.68;100.00
7168;BME280;3625;51.762;14.320;2023-01-27T10:47:40;101439.34;;;2.85;100.00
7168;BME280;3625;51.762;14.320;2023-01-27T10:50:19;101443.50;;;2.77;100.00
7168;BME280;3625;51.762;14.320;2023-01-27T10:52:59;101454.75;;;2.41;100.00
7168;BME280;3625;51.762;14.320;2023-01-27T10:55:38;101453.44;;;2.57;100.00
7168;BME280;3625;51.762;14.320;2023-01-27T10:58:17;101453.66;;;2.66;100.00
7168;BME280;3625;51.762;14.320;2023-01-27T11:00:51;101447.78;;;2.75;100.00
7168;BME280;3625;51.762;14.320;2023-01-27T11:03:46;101441.91;;;2.83;100.00
7168;BME280;3625;51.762;14.320;2023-01-27T11:06:22;101443.75;;;2.87;100.00
7168;BME280;3625;51.762;14.320;2023-01-27T11:09:05;101419.94;;;2.75;100.00
7168;BME280;3625;51.762;14.320;2023-01-27T11:11:35;101365.97;;;2.43;100.00
7168;BME280;3625;51.762;14.320;2023-01-27T11:14:25;101420.00;;;2.78;100.00
7168;BME280;3625;51.762;14.320;2023-01-27T11:17:02;101449.47;;;3.07;100.00
7168;BME280;3625;51.762;14.320;2023-01-27T11:19:45;101440.50;;;2.97;100.00
7168;BME280;3625;51.762;14.320;2023-01-27T11:22:22;101444.72;;;2.91;100.00
7168;BME280;3625;51.762;14.320;2023-01-27T11:25:03;101441.31;;;2.93;100.00
7168;BME280;3625;51.762;14.320;2023-01-27T11:27:56;101440.75;;;3.07;100.00
7168;BME280;3625;51.762;14.320;2023-01-27T11:30:35;101361.25;;;2.62;100.00
7168;BME280;3625;51.762;14.320;2023-01-27T11:33:17;101446.81;;;3.06;100.00
7168;BME280;3625;51.762;14.320;2023-01-27T11:35:52;101448.50;;;3.03;100.00
7168;BME280;3625;51.762;14.320;2023-01-27T11:38:22;101439.34;;;2.86;100.00
7168;BME280;3625;51.762;14.320;2023-01-27T11:40:53;101418.72;;;2.62;100.00
7168;BME280;3625;51.762;14.320;2023-01-27T11:43:24;101439.34;;;2.86;100.00
7168;BME280;3625;51.762;14.320;2023-01-27T11:46:00;101414.19;;;2.90;100.00
7168;BME280;3625;51.762;14.320;2023-01-27T11:48:37;101399.78;;;2.71;100.00
7168;BME280;3625;51.762;14.320;2023-01-27T11:51:16;101437.50;;;2.81;100.00
7168;BME280;3625;51.762;14.320;2023-01-27T11:53:56;101440.41;;;2.93;100.00
7168;BME280;3625;51.762;14.320;2023-01-27T11:56:34;101440.28;;;2.88;100.00
7168;BME280;3625;51.762;14.320;2023-01-27T11:59:10;101415.00;;;2.87;100.00
7168;BME280;3625;51.762;14.320;2023-01-27T12:01:47;101439.66;;;2.98;100.00
7168;BME280;3625;51.762;14.320;2023-01-27T12:04:23;101433.41;;;2.92;100.00
7168;BME280;3625;51.762;14.320;2023-01-27T12:07:03;101424.47;;;2.82;100.00
7168;BME280;3625;51.762;14.320;2023-01-27T12:09:35;101349.00;;;2.25;100.00
7168;BME280;3625;51.762;14.320;2023-01-27T12:12:24;101390.22;;;2.37;100.00
7168;BME280;3625;51.762;14.320;2023-01-27T12:14:56;101328.13;;;2.24;100.00
7168;BME280;3625;51.762;14.320;2023-01-27T12:17:33;101423.34;;;2.73;100.00
7168;BME280;3625;51.762;14.320;2023-01-27T12:20:30;101359.22;;;2.51;100.00
7168;BME280;3625;51.762;14.320;2023-01-27T12:23:15;101397.41;;;2.80;100.00
7168;BME280;3625;51.762;14.320;2023-01-27T12:25:52;101338.94;;;2.39;100.00
7168;BME280;3625;51.762;14.320;2023-01-27T12:28:29;101414.16;;;2.88;100.00
7168;BME280;3625;51.762;14.320;2023-01-27T12:31:07;101376.97;;;2.64;100.00
7168;BME280;3625;51.762;14.320;2023-01-27T12:33:39;101403.38;;;2.75;100.00
7168;BME280;3625;51.762;14.320;2023-01-27T12:36:14;101416.50;;;2.76;100.00
7168;BME280;3625;51.762;14.320;2023-01-27T12:38:49;101406.03;;;2.76;100.00
7168;BME280;3625;51.762;14.320;2023-01-27T12:41:25;101332.81;;;2.39;100.00
7168;BME280;3625;51.762;14.320;2023-01-27T12:43:59;101412.16;;;2.78;100.00
7168;BME280;3625;51.762;14.320;2023-01-27T12:46:38;101401.59;;;2.74;100.00
7168;BME280;3625;51.762;14.320;2023-01-27T12:49:12;101400.09;;;2.83;100.00
7168;BME280;3625;51.762;14.320;2023-01-27T12:51:44;101397.63;;;2.89;100.00
7168;BME280;3625;51.762;14.320;2023-01-27T12:54:22;101402.38;;;3.06;100.00
7168;BME280;3625;51.762;14.320;2023-01-27T12:57:00;101344.22;;;2.78;100.00
7168;BME280;3625;51.762;14.320;2023-01-27T12:59:33;101403.44;;;3.14;100.00
7168;BME280;3625;51.762;14.320;2023-01-27T13:02:18;101368.09;;;2.92;100.00
7168;BME280;3625;51.762;14.320;2023-01-27T13:04:52;101393.19;;;3.23;100.00
7168;BME280;3625;51.762;14.320;2023-01-27T13:07:27;101364.28;;;2.79;100.00
7168;BME280;3625;51.762;14.320;2023-01-27T13:10:00;101320.88;;;2.48;100.00
7168;BME280;3625;51.762;14.320;2023-01-27T13:12:34;101386.22;;;2.50;100.00
7168;BME280;3625;51.762;14.320;2023-01-27T13:15:18;101399.78;;;2.37;100.00
7168;BME280;3625;51.762;14.320;2023-01-27T13:17:49;101276.63;;;1.52;100.00
7168;BME280;3625;51.762;14.320;2023-01-27T13:20:23;101406.28;;;2.19;100.00
7168;BME280;3625;51.762;14.320;2023-01-27T13:23:00;101410.88;;;2.28;100.00
7168;BME280;3625;51.762;14.320;2023-01-27T13:25:38;101409.34;;;2.36;100.00
7168;BME280;3625;51.762;14.320;2023-01-27T13:28:19;101390.72;;;2.22;100.00
7168;BME280;3625;51.762;14.320;2023-01-27T13:30:55;101382.97;;;1.94;100.00
7168;BME280;3625;51.762;14.320;2023-01-27T13:33:35;101339.06;;;1.78;100.00
7168;BME280;3625;51.762;14.320;2023-01-27T13:36:14;101395.66;;;2.12;100.00
7168;BME280;3625;51.762;14.320;2023-01-27T13:38:54;101405.53;;;2.23;100.00
7168;BME280;3625;51.762;14.320;2023-01-27T13:41:32;101415.84;;;2.19;100.00